createdAt,value
2019-03-29T00:00:26.193Z,58.60
2019-03-29T00:02:52.579Z,58.50
2019-03-29T00:05:18.953Z,58.50
2019-03-29T00:07:45.715Z,58.50
2019-03-29T00:10:12.268Z,58.60
2019-03-29T00:12:38.700Z,58.60
2019-03-29T00:15:05.215Z,58.70
2019-03-29T00:17:34.272Z,58.90
2019-03-29T00:20:00.585Z,58.90
2019-03-29T00:22:26.923Z,58.80
2019-03-29T00:24:53.235Z,58.80
2019-03-29T00:27:19.666Z,58.70
2019-03-29T00:29:45.994Z,58.80
2019-03-29T00:32:12.398Z,58.80
2019-03-29T00:34:38.828Z,58.70
2019-03-29T00:37:05.150Z,58.80
2019-03-29T00:39:31.951Z,58.70
2019-03-29T00:41:58.552Z,58.70
2019-03-29T00:44:24.980Z,58.60
2019-03-29T00:46:51.319Z,58.70
2019-03-29T00:49:17.852Z,58.70
2019-03-29T00:51:44.163Z,58.50
2019-03-29T00:54:10.691Z,58.50
2019-03-29T00:56:37.000Z,58.50
2019-03-29T00:59:03.415Z,58.40
2019-03-29T01:01:30.224Z,58.40
2019-03-29T01:03:56.579Z,58.40
2019-03-29T01:06:22.903Z,58.30
2019-03-29T01:08:49.522Z,58.20
2019-03-29T01:11:15.924Z,58.20
2019-03-29T01:13:42.591Z,58.20
2019-03-29T01:16:08.934Z,58.10
2019-03-29T01:18:35.244Z,58.00
2019-03-29T01:21:01.597Z,58.10
2019-03-29T01:23:27.891Z,58.00
2019-03-29T01:25:54.331Z,58.00
2019-03-29T01:28:20.753Z,58.00
2019-03-29T01:30:47.170Z,58.00
2019-03-29T01:33:13.810Z,58.00
2019-03-29T01:35:40.489Z,58.00
2019-03-29T01:38:20.758Z,57.90
2019-03-29T01:40:35.161Z,57.90
2019-03-29T01:43:01.904Z,58.00
2019-03-29T01:45:28.323Z,58.70
2019-03-29T01:47:55.390Z,58.00
2019-03-29T01:50:22.591Z,58.00
2019-03-29T01:52:48.998Z,58.10
2019-03-29T01:55:15.405Z,58.10
2019-03-29T01:57:42.073Z,58.10
2019-03-29T02:00:09.226Z,58.00
2019-03-29T02:02:36.372Z,58.00
2019-03-29T02:05:05.348Z,58.00
2019-03-29T02:07:31.774Z,58.10
2019-03-29T02:09:58.676Z,58.10
2019-03-29T02:12:25.280Z,58.00
2019-03-29T02:14:51.817Z,58.00
2019-03-29T02:17:18.347Z,58.10
2019-03-29T02:19:44.888Z,58.10
2019-03-29T02:22:11.431Z,58.00
2019-03-29T02:24:37.741Z,58.10
2019-03-29T02:27:04.285Z,58.10
2019-03-29T02:29:30.701Z,58.10
2019-03-29T02:31:57.193Z,58.00
2019-03-29T02:34:24.074Z,58.00
2019-03-29T02:36:50.374Z,58.00
2019-03-29T02:39:16.817Z,58.00
2019-03-29T02:41:43.123Z,58.00
2019-03-29T02:44:09.539Z,58.00
2019-03-29T02:46:35.864Z,58.00
2019-03-29T02:49:02.298Z,58.00
2019-03-29T02:51:28.632Z,57.90
2019-03-29T02:53:55.051Z,57.90
2019-03-29T02:56:21.687Z,57.90
2019-03-29T02:58:48.118Z,57.90
2019-03-29T03:01:14.515Z,57.80
2019-03-29T03:03:40.864Z,57.90
2019-03-29T03:06:07.488Z,57.80
2019-03-29T03:08:33.799Z,57.60
2019-03-29T03:11:00.104Z,57.50
2019-03-29T03:13:26.969Z,57.50
2019-03-29T03:15:53.487Z,57.60
2019-03-29T03:18:19.958Z,57.50
2019-03-29T03:20:46.251Z,57.50
2019-03-29T03:23:12.777Z,57.50
2019-03-29T03:25:39.104Z,57.50
2019-03-29T03:28:06.021Z,57.50
2019-03-29T03:30:32.484Z,57.50
2019-03-29T03:32:58.901Z,57.50
2019-03-29T03:35:25.214Z,57.80
2019-03-29T03:37:51.517Z,57.90
2019-03-29T03:40:17.825Z,58.30
2019-03-29T03:42:44.172Z,58.40
2019-03-29T03:45:21.063Z,58.60
2019-03-29T03:47:54.457Z,59.30
2019-03-29T03:50:47.173Z,59.40
2019-03-29T03:53:13.418Z,59.00
2019-03-29T03:55:40.448Z,58.90
2019-03-29T03:58:07.761Z,58.90
2019-03-29T04:00:51.981Z,58.70
2019-03-29T04:03:19.071Z,58.70
2019-03-29T04:05:45.501Z,58.60
2019-03-29T04:08:11.795Z,58.50
2019-03-29T04:10:42.023Z,58.40
2019-03-29T04:13:06.444Z,58.30
2019-03-29T04:15:32.908Z,58.50
2019-03-29T04:17:59.266Z,58.50
2019-03-29T04:20:25.683Z,58.70
2019-03-29T04:22:51.999Z,58.70
2019-03-29T04:25:18.520Z,58.30
2019-03-29T04:27:44.932Z,57.40
2019-03-29T04:30:11.490Z,57.50
2019-03-29T04:32:38.008Z,57.50
2019-03-29T04:35:04.548Z,57.60
2019-03-29T04:37:31.066Z,57.60
2019-03-29T04:40:07.000Z,57.60
2019-03-29T04:42:25.627Z,57.50
2019-03-29T04:44:52.139Z,57.60
2019-03-29T04:47:18.550Z,57.60
2019-03-29T04:49:44.984Z,57.50
2019-03-29T04:52:11.283Z,57.60
2019-03-29T04:54:37.619Z,57.60
2019-03-29T04:57:04.148Z,57.40
2019-03-29T04:59:30.560Z,57.40
2019-03-29T05:01:57.020Z,57.30
2019-03-29T05:04:23.521Z,57.10
2019-03-29T05:06:49.857Z,57.10
2019-03-29T05:09:16.151Z,57.00
2019-03-29T05:11:42.456Z,56.80
2019-03-29T05:14:09.224Z,57.20
2019-03-29T05:16:35.631Z,57.00
2019-03-29T05:19:02.209Z,56.90
2019-03-29T05:21:28.511Z,57.10
2019-03-29T05:23:55.396Z,56.90
2019-03-29T05:26:25.238Z,56.80
2019-03-29T05:28:50.444Z,56.90
2019-03-29T05:31:16.871Z,56.80
2019-03-29T05:33:43.277Z,56.70
2019-03-29T05:36:09.582Z,56.60
2019-03-29T05:38:35.915Z,56.60
2019-03-29T05:41:02.555Z,56.50
2019-03-29T05:43:28.887Z,56.30
2019-03-29T05:45:55.220Z,56.20
2019-03-29T05:48:21.509Z,56.40
2019-03-29T05:50:47.979Z,56.40
2019-03-29T05:53:14.711Z,56.40
2019-03-29T05:55:41.151Z,56.10
2019-03-29T05:58:07.672Z,55.90
2019-03-29T06:00:34.117Z,55.80
2019-03-29T06:03:00.452Z,56.00
2019-03-29T06:05:26.758Z,56.00
2019-03-29T06:07:53.332Z,56.00
2019-03-29T06:10:19.639Z,55.80
2019-03-29T06:12:46.057Z,55.70
2019-03-29T06:15:12.479Z,56.20
2019-03-29T06:17:48.511Z,55.80
2019-03-29T06:20:07.158Z,55.40
2019-03-29T06:22:33.479Z,55.50
2019-03-29T06:24:59.888Z,55.30
2019-03-29T06:27:26.236Z,55.40
2019-03-29T06:29:52.515Z,55.30
2019-03-29T06:32:19.047Z,55.30
2019-03-29T06:34:45.479Z,55.30
2019-03-29T06:37:12.909Z,55.20
2019-03-29T06:39:39.231Z,55.30
2019-03-29T06:42:05.731Z,55.30
2019-03-29T06:44:32.149Z,55.30
2019-03-29T06:46:58.484Z,55.30
2019-03-29T06:49:24.995Z,55.10
2019-03-29T06:51:51.348Z,55.20
2019-03-29T06:54:17.647Z,55.30
2019-03-29T06:56:44.167Z,53.00
2019-03-29T06:59:10.590Z,51.20
2019-03-29T07:01:37.011Z,52.80
2019-03-29T07:04:03.508Z,52.90
2019-03-29T07:06:30.643Z,53.40
2019-03-29T07:08:57.167Z,53.70
2019-03-29T07:11:23.616Z,53.90
2019-03-29T07:13:57.417Z,53.90
2019-03-29T07:16:18.819Z,54.00
2019-03-29T07:18:45.759Z,54.00
2019-03-29T07:21:21.295Z,54.00
2019-03-29T07:23:40.419Z,54.10
2019-03-29T07:26:07.052Z,54.20
2019-03-29T07:28:33.615Z,54.10
2019-03-29T07:30:59.916Z,54.10
2019-03-29T07:33:26.446Z,54.20
2019-03-29T07:35:52.884Z,54.30
2019-03-29T07:38:19.179Z,54.40
2019-03-29T07:40:46.123Z,54.40
2019-03-29T07:43:12.634Z,54.40
2019-03-29T07:45:38.939Z,54.40
2019-03-29T07:48:05.446Z,54.40
2019-03-29T07:50:32.109Z,54.60
2019-03-29T07:52:58.540Z,54.70
2019-03-29T07:55:24.855Z,54.60
2019-03-29T07:57:51.371Z,54.60
2019-03-29T08:00:20.313Z,55.10
2019-03-29T08:02:46.121Z,54.50
2019-03-29T08:05:12.460Z,54.50
2019-03-29T08:07:38.874Z,54.60
2019-03-29T08:10:05.176Z,54.50
2019-03-29T08:12:31.719Z,54.40
2019-03-29T08:14:58.292Z,54.50
2019-03-29T08:17:25.408Z,54.50
2019-03-29T08:20:05.700Z,54.40
2019-03-29T08:22:20.051Z,54.30
2019-03-29T08:24:46.607Z,54.30
2019-03-29T08:27:13.099Z,54.20
2019-03-29T08:29:39.535Z,54.20
2019-03-29T08:32:05.858Z,54.20
2019-03-29T08:34:35.798Z,54.20
2019-03-29T08:37:00.764Z,54.20
2019-03-29T08:39:28.425Z,54.10
2019-03-29T08:42:00.466Z,54.10
2019-03-29T08:44:23.392Z,54.00
2019-03-29T08:46:49.729Z,53.90
2019-03-29T08:49:16.945Z,54.00
2019-03-29T08:51:43.772Z,54.00
2019-03-29T08:54:10.197Z,54.10
2019-03-29T08:56:36.484Z,53.90
2019-03-29T08:59:03.139Z,53.90
2019-03-29T09:01:29.501Z,53.80
2019-03-29T09:04:05.299Z,53.70
2019-03-29T09:06:24.002Z,53.70
2019-03-29T09:08:50.542Z,53.70
2019-03-29T09:11:17.051Z,53.80
2019-03-29T09:13:43.363Z,52.90
2019-03-29T09:16:09.944Z,53.80
2019-03-29T09:18:37.097Z,53.60
2019-03-29T09:21:03.517Z,53.50
2019-03-29T09:23:30.391Z,53.50
2019-03-29T09:25:56.990Z,53.60
2019-03-29T09:28:23.642Z,53.40
2019-03-29T09:30:50.093Z,53.30
2019-03-29T09:33:16.473Z,53.40
2019-03-29T09:35:43.210Z,53.30
2019-03-29T09:38:09.863Z,53.20
2019-03-29T09:40:36.279Z,53.20
2019-03-29T09:43:09.607Z,53.30
2019-03-29T09:45:31.064Z,53.20
2019-03-29T09:47:57.489Z,53.40
2019-03-29T09:50:31.281Z,53.20
2019-03-29T09:53:03.587Z,53.20
2019-03-29T09:55:29.938Z,54.00
2019-03-29T09:57:56.267Z,54.10
2019-03-29T10:00:23.487Z,53.90
2019-03-29T10:02:50.189Z,53.80
2019-03-29T10:05:19.861Z,53.70
2019-03-29T10:07:45.412Z,53.50
2019-03-29T10:10:11.844Z,53.40
2019-03-29T10:12:43.663Z,53.40
2019-03-29T10:15:06.343Z,53.40
2019-03-29T10:17:33.591Z,53.30
2019-03-29T10:20:00.011Z,53.20
2019-03-29T10:22:26.439Z,53.20
2019-03-29T10:24:52.934Z,53.30
2019-03-29T10:27:19.480Z,53.20
2019-03-29T10:29:45.967Z,53.10
2019-03-29T10:32:12.419Z,53.00
2019-03-29T10:34:38.979Z,53.00
2019-03-29T10:37:05.399Z,52.90
2019-03-29T10:39:35.340Z,52.90
2019-03-29T10:42:00.029Z,52.80
2019-03-29T10:44:26.355Z,52.80
2019-03-29T10:46:52.695Z,52.80
2019-03-29T10:49:19.007Z,52.70
2019-03-29T10:51:45.425Z,52.70
2019-03-29T10:54:11.935Z,52.70
2019-03-29T10:56:38.482Z,52.60
2019-03-29T10:59:04.829Z,52.70
2019-03-29T11:01:31.152Z,52.60
2019-03-29T11:03:57.464Z,52.60
2019-03-29T11:06:23.899Z,52.50
2019-03-29T11:08:50.311Z,52.50
2019-03-29T11:11:17.326Z,52.60
2019-03-29T11:13:43.667Z,53.40
2019-03-29T11:16:10.033Z,53.50
2019-03-29T11:18:37.048Z,53.60
2019-03-29T11:21:03.641Z,53.90
2019-03-29T11:23:30.069Z,54.00
2019-03-29T11:25:56.489Z,54.00
2019-03-29T11:28:22.933Z,54.50
2019-03-29T11:30:49.347Z,54.90
2019-03-29T11:33:15.780Z,54.90
2019-03-29T11:35:42.194Z,55.10
2019-03-29T11:38:08.483Z,55.30
2019-03-29T11:40:34.908Z,55.30
2019-03-29T11:43:01.233Z,55.30
2019-03-29T11:45:27.646Z,55.30
2019-03-29T11:48:07.559Z,55.40
2019-03-29T11:50:22.249Z,55.40
2019-03-29T11:52:48.783Z,55.40
2019-03-29T11:55:15.300Z,55.50
2019-03-29T11:57:41.727Z,55.50
2019-03-29T12:00:10.052Z,55.30
2019-03-29T12:02:38.197Z,55.30
2019-03-29T12:05:05.581Z,55.10
2019-03-29T12:07:32.109Z,55.10
2019-03-29T12:09:59.034Z,55.00
2019-03-29T12:12:27.592Z,55.20
2019-03-29T12:14:53.507Z,55.60
2019-03-29T12:17:19.954Z,55.10
2019-03-29T12:19:46.380Z,55.00
2019-03-29T12:22:12.915Z,55.00
2019-03-29T12:24:39.321Z,55.00
2019-03-29T12:27:05.822Z,55.00
2019-03-29T12:29:32.395Z,55.10
2019-03-29T12:31:58.804Z,55.10
2019-03-29T12:34:25.427Z,55.10
2019-03-29T12:36:51.765Z,55.10
2019-03-29T12:39:18.182Z,55.00
2019-03-29T12:41:44.817Z,54.90
2019-03-29T12:44:11.237Z,54.90
2019-03-29T12:46:38.971Z,54.70
2019-03-29T12:49:05.284Z,54.80
2019-03-29T12:51:31.894Z,54.70
2019-03-29T12:53:58.942Z,54.60
2019-03-29T12:56:25.496Z,54.70
2019-03-29T12:58:52.057Z,54.50
2019-03-29T13:01:18.451Z,54.50
2019-03-29T13:03:44.829Z,54.40
2019-03-29T13:06:11.611Z,54.40
2019-03-29T13:08:38.249Z,54.30
2019-03-29T13:11:04.584Z,54.30
2019-03-29T13:13:30.995Z,54.30
2019-03-29T13:15:57.790Z,54.30
2019-03-29T13:18:24.620Z,54.20
2019-03-29T13:20:51.136Z,54.20
2019-03-29T13:23:17.582Z,54.20
2019-03-29T13:25:43.987Z,54.10
2019-03-29T13:28:10.427Z,54.10
2019-03-29T13:30:36.730Z,54.10
2019-03-29T13:33:03.135Z,54.10
2019-03-29T13:35:29.756Z,54.10
2019-03-29T13:37:56.204Z,54.10
2019-03-29T13:40:22.591Z,54.10
2019-03-29T13:42:51.883Z,54.00
2019-03-29T13:45:18.229Z,54.10
2019-03-29T13:47:44.640Z,54.10
2019-03-29T13:50:10.970Z,54.10
2019-03-29T13:52:37.307Z,53.90
2019-03-29T13:55:04.906Z,53.70
2019-03-29T13:57:31.243Z,53.80
2019-03-29T13:59:57.840Z,53.90
2019-03-29T14:02:24.483Z,53.80
2019-03-29T14:04:50.912Z,54.00
2019-03-29T14:07:17.216Z,54.10
2019-03-29T14:09:43.923Z,54.60
2019-03-29T14:12:10.331Z,54.00
2019-03-29T14:14:38.339Z,51.00
2019-03-29T14:17:04.868Z,39.60
2019-03-29T14:19:32.239Z,33.80
2019-03-29T14:21:58.676Z,34.30
2019-03-29T14:24:25.284Z,34.20
2019-03-29T14:26:51.590Z,35.60
2019-03-29T14:29:18.735Z,36.70
2019-03-29T14:31:45.144Z,38.40
2019-03-29T14:34:11.633Z,39.60
2019-03-29T14:36:38.127Z,40.60
2019-03-29T14:39:05.255Z,41.50
2019-03-29T14:41:31.694Z,42.20
2019-03-29T14:43:58.322Z,42.80
2019-03-29T14:46:24.639Z,43.50
2019-03-29T14:48:51.043Z,43.80
2019-03-29T14:51:17.461Z,44.30
2019-03-29T14:53:43.807Z,45.30
2019-03-29T14:56:10.091Z,45.00
2019-03-29T14:58:36.644Z,45.30
2019-03-29T15:01:03.052Z,45.70
2019-03-29T15:03:29.455Z,46.00
2019-03-29T15:05:55.787Z,46.30
2019-03-29T15:08:22.402Z,46.30
2019-03-29T15:10:49.132Z,46.40
2019-03-29T15:13:15.460Z,47.40
2019-03-29T15:15:41.859Z,46.90
2019-03-29T15:18:08.296Z,47.10
2019-03-29T15:20:35.191Z,47.40
2019-03-29T15:23:01.905Z,47.50
2019-03-29T15:25:28.433Z,47.90
2019-03-29T15:27:54.843Z,48.00
2019-03-29T15:30:21.259Z,48.00
2019-03-29T15:32:47.591Z,48.10
2019-03-29T15:35:14.040Z,48.50
2019-03-29T15:37:40.563Z,48.80
2019-03-29T15:40:07.178Z,48.90
2019-03-29T15:42:33.500Z,49.20
2019-03-29T15:44:59.992Z,49.40
2019-03-29T15:47:26.509Z,49.60
2019-03-29T15:49:56.252Z,49.80
2019-03-29T15:52:21.069Z,49.90
2019-03-29T15:54:53.289Z,50.10
2019-03-29T15:57:25.494Z,49.60
2019-03-29T15:59:51.933Z,41.90
2019-03-29T16:02:18.456Z,33.60
2019-03-29T16:04:44.904Z,34.70
2019-03-29T16:07:11.432Z,36.80
2019-03-29T16:09:39.051Z,36.00
2019-03-29T16:12:05.477Z,37.70
2019-03-29T16:14:31.900Z,38.80
2019-03-29T16:16:58.254Z,39.80
2019-03-29T16:19:25.149Z,40.70
2019-03-29T16:21:51.765Z,41.50
2019-03-29T16:24:18.103Z,42.00
2019-03-29T16:26:44.520Z,42.60
2019-03-29T16:29:10.952Z,43.00
2019-03-29T16:31:37.481Z,44.00
2019-03-29T16:34:03.894Z,44.40
2019-03-29T16:36:30.335Z,45.40
2019-03-29T16:38:56.636Z,44.90
2019-03-29T16:41:22.961Z,45.30
2019-03-29T16:43:49.418Z,45.60
2019-03-29T16:46:15.940Z,46.20
2019-03-29T16:48:42.653Z,46.50
2019-03-29T16:51:08.959Z,46.90
2019-03-29T16:53:35.313Z,40.20
2019-03-29T16:56:01.611Z,35.90
2019-03-29T16:58:28.112Z,38.40
2019-03-29T17:00:54.464Z,40.30
2019-03-29T17:03:20.871Z,41.10
2019-03-29T17:05:47.408Z,41.90
2019-03-29T17:08:15.238Z,42.40
2019-03-29T17:10:41.530Z,42.90
2019-03-29T17:13:07.872Z,43.40
2019-03-29T17:15:34.316Z,44.40
2019-03-29T17:18:03.136Z,44.20
2019-03-29T17:20:30.661Z,44.50
2019-03-29T17:22:57.052Z,44.80
2019-03-29T17:25:23.351Z,45.80
2019-03-29T17:27:52.175Z,46.30
2019-03-29T17:30:21.719Z,46.60
2019-03-29T17:32:48.038Z,46.80
2019-03-29T17:35:14.448Z,47.00
2019-03-29T17:37:40.854Z,47.10
2019-03-29T17:40:07.369Z,47.10
2019-03-29T17:42:33.694Z,47.20
2019-03-29T17:44:59.996Z,47.30
2019-03-29T17:47:26.304Z,47.50
2019-03-29T17:49:52.615Z,47.60
2019-03-29T17:52:19.024Z,47.70
2019-03-29T17:54:45.351Z,47.70
2019-03-29T17:57:11.779Z,47.80
2019-03-29T17:59:38.074Z,48.70
2019-03-29T18:02:09.514Z,48.70
2019-03-29T18:04:32.831Z,49.40
2019-03-29T18:06:59.494Z,49.20
2019-03-29T18:09:25.900Z,49.00
2019-03-29T18:11:52.622Z,48.90
2019-03-29T18:14:19.032Z,48.80
2019-03-29T18:16:45.540Z,48.80
2019-03-29T18:19:12.856Z,48.80
2019-03-29T18:21:39.199Z,50.30
2019-03-29T18:24:05.487Z,51.00
2019-03-29T18:26:31.804Z,51.40
2019-03-29T18:28:58.321Z,51.60
2019-03-29T18:31:24.858Z,52.50
2019-03-29T18:33:51.378Z,52.80
2019-03-29T18:36:17.789Z,52.70
2019-03-29T18:38:45.223Z,52.60
2019-03-29T18:41:11.759Z,52.40
2019-03-29T18:43:38.089Z,52.40
2019-03-29T18:46:04.389Z,52.40
2019-03-29T18:48:30.923Z,51.70
2019-03-29T18:50:57.226Z,52.20
2019-03-29T18:53:23.769Z,52.20
2019-03-29T18:55:50.279Z,52.20
2019-03-29T18:58:16.600Z,52.30
2019-03-29T19:00:42.921Z,52.60
2019-03-29T19:03:11.839Z,52.80
2019-03-29T19:05:37.339Z,53.00
2019-03-29T19:08:03.757Z,53.90
2019-03-29T19:10:30.209Z,54.90
2019-03-29T19:12:56.634Z,56.30
2019-03-29T19:15:23.559Z,56.70
2019-03-29T19:17:49.992Z,57.60
2019-03-29T19:20:26.522Z,57.30
2019-03-29T19:22:44.677Z,57.40
2019-03-29T19:25:11.087Z,57.90
2019-03-29T19:27:38.622Z,58.10
2019-03-29T19:30:07.823Z,57.70
2019-03-29T19:32:34.233Z,57.50
2019-03-29T19:35:00.651Z,57.30
2019-03-29T19:37:27.196Z,57.20
2019-03-29T19:39:53.515Z,56.90
2019-03-29T19:42:20.059Z,56.70
2019-03-29T19:44:47.411Z,56.70
2019-03-29T19:47:14.138Z,56.50
2019-03-29T19:49:40.492Z,56.60
2019-03-29T19:52:07.919Z,56.60
2019-03-29T19:54:34.812Z,56.40
2019-03-29T19:57:01.587Z,56.20
2019-03-29T19:59:27.923Z,56.10
2019-03-29T20:01:54.319Z,56.80
2019-03-29T20:04:20.732Z,56.50
2019-03-29T20:06:47.076Z,56.60
2019-03-29T20:09:13.590Z,57.30
2019-03-29T20:11:39.995Z,57.20
2019-03-29T20:14:06.322Z,57.40
2019-03-29T20:16:32.915Z,57.30
2019-03-29T20:18:59.375Z,57.50
2019-03-29T20:21:26.076Z,57.30
2019-03-29T20:23:52.431Z,57.20
2019-03-29T20:26:18.953Z,57.10
2019-03-29T20:28:45.372Z,56.90
2019-03-29T20:31:11.873Z,56.80
2019-03-29T20:33:38.648Z,56.80
2019-03-29T20:36:04.943Z,56.70
2019-03-29T20:38:31.624Z,56.50
2019-03-29T20:40:57.938Z,56.30
2019-03-29T20:43:24.267Z,56.40
2019-03-29T20:45:50.576Z,56.70
2019-03-29T20:48:16.912Z,56.40
2019-03-29T20:50:43.239Z,56.30
2019-03-29T20:53:09.651Z,56.10
2019-03-29T20:55:36.120Z,56.00
2019-03-29T20:58:02.626Z,56.00
2019-03-29T21:00:29.045Z,55.80
2019-03-29T21:02:55.353Z,55.80
2019-03-29T21:05:21.768Z,55.70
2019-03-29T21:07:48.509Z,55.60
2019-03-29T21:10:15.115Z,55.50
2019-03-29T21:12:41.528Z,55.50
2019-03-29T21:15:08.150Z,55.30
2019-03-29T21:17:35.467Z,55.20
2019-03-29T21:20:03.949Z,55.10
2019-03-29T21:22:30.417Z,55.10
2019-03-29T21:24:58.557Z,54.90
2019-03-29T21:27:25.067Z,54.90
2019-03-29T21:29:51.389Z,54.70
2019-03-29T21:32:17.814Z,54.70
2019-03-29T21:34:44.346Z,54.40
2019-03-29T21:37:10.755Z,54.70
2019-03-29T21:39:37.071Z,54.40
2019-03-29T21:42:03.382Z,55.20
2019-03-29T21:44:29.799Z,54.60
2019-03-29T21:46:56.348Z,54.60
2019-03-29T21:49:22.756Z,54.50
2019-03-29T21:51:49.190Z,54.40
2019-03-29T21:54:15.624Z,54.60
2019-03-29T21:56:42.148Z,54.50
2019-03-29T21:59:08.646Z,54.60
2019-03-29T22:01:34.946Z,54.40
2019-03-29T22:04:01.253Z,54.60
2019-03-29T22:06:27.780Z,54.60
2019-03-29T22:08:54.091Z,54.70
2019-03-29T22:11:20.531Z,54.60
2019-03-29T22:13:47.193Z,54.60
2019-03-29T22:16:13.544Z,54.60
2019-03-29T22:18:39.993Z,54.80
2019-03-29T22:21:06.519Z,54.70
2019-03-29T22:23:32.978Z,54.70
2019-03-29T22:26:00.564Z,55.00
2019-03-29T22:28:27.369Z,54.90
2019-03-29T22:30:53.776Z,54.90
2019-03-29T22:33:20.094Z,54.90
2019-03-29T22:35:46.519Z,54.80
2019-03-29T22:38:13.289Z,54.80
2019-03-29T22:40:39.656Z,54.80
2019-03-29T22:43:07.591Z,54.80
2019-03-29T22:45:34.433Z,54.80
2019-03-29T22:48:00.812Z,54.80
2019-03-29T22:50:27.241Z,54.70
2019-03-29T22:52:54.674Z,54.70
2019-03-29T22:55:21.412Z,54.70
2019-03-29T22:57:47.937Z,54.60
2019-03-29T23:00:25.559Z,54.60
2019-03-29T23:02:52.193Z,54.60
2019-03-29T23:05:18.703Z,54.80
2019-03-29T23:07:45.259Z,55.30
2019-03-29T23:10:11.814Z,54.80
2019-03-29T23:12:38.227Z,54.80
2019-03-29T23:15:04.534Z,54.80
2019-03-29T23:17:30.841Z,54.70
2019-03-29T23:19:57.272Z,54.70
2019-03-29T23:22:23.873Z,54.70
2019-03-29T23:24:50.417Z,54.70
2019-03-29T23:27:16.720Z,54.70
2019-03-29T23:29:43.246Z,54.80
2019-03-29T23:32:09.553Z,54.90
2019-03-29T23:34:35.960Z,54.90
2019-03-29T23:37:02.367Z,54.80
2019-03-29T23:39:28.799Z,54.80
2019-03-29T23:41:55.115Z,54.90
2019-03-29T23:44:21.426Z,54.90
2019-03-29T23:46:47.764Z,55.00
2019-03-29T23:49:21.090Z,55.00
2019-03-29T23:51:42.316Z,55.00
2019-03-29T23:54:08.729Z,55.00
2019-03-29T23:56:35.237Z,55.00
2019-03-29T23:59:02.072Z,54.90
